Highland Heights, Ohio
Current Conditions -  °F | °C
As of 3:45 PM on Friday 28 Nov 2014 (Local Time) from KCGF Reporting Station
Broken Clouds Broken Clouds  
Wind Chill: -8°   Ceiling: 15000
Heat Index: -2°   Visibility: 10mi
Dew Point: -8°   Wind: 12mph
Humidity: 64%   Direction: 250°WSW
Pressure: 30.24"   Gusts: NA
Location:  41.5545°N, 81.4746°W
Report Text: KCGF 282045Z 25010KT 10SM SCT030 BKN150 M02/M08 A3024
Loading
Personal Weather Stations






























Interactive Weather Map New forecast layout! Learn more

10-Day Weather Forecast

Advertisements
Track Severe Weather on mobile